Merritt Island, FL

3:40 AM EST en Febrero 01, 2015 (GMT -0500)
Nasa Shuttle | Change Station
CLOSE
Current Station
Aeropuerto
Location: Nasa Shuttle,
Altura: 10 ft
Estaciones meteorológicas cercanas

Alt 10 ft 28.61 °N, 80.69 °W | Updated 42 minutes ago

Parcialmente nublado
Parcialmente nublado
52 ° F
Sensación térmica 52 ° F
N
4
Viento Variable Viento desde SE

Hoy
Alta -- | Baja -- ° F
--% Posibilidad de precipitaciones
Ayer
Alta -- | Baja -- ° F
Precip. -- pul
7:10 AM 6:02 PM
Gibosa creciente, 94% visible
Presión 30.23 pul
Visibilidad 10.0 Millas
Nubes Muy nublado 3700 ft
Muy nublado 4500 ft
Punto de rocío 50 ° F
Humedad 92%
Precipitaciones 0.00 pul
Espesor de la nieve No disponible.
UV 0 de una escala de 12
Polen 9.70 de una escala de 12
Calidad del aire No disponible.
Flu Activity No disponible.
METAR KTTS 010758Z AUTO 13003KT 10SM BKN037 BKN045 11/10 A3022 RMK AO2 SLP237 T01110098

More Conditions Fewer Conditions

Presión 30.23 pul
Visibilidad 10.0 Millas
Nubes Muy nublado 3700 ft
Muy nublado 4500 ft
Punto de rocío 50 ° F
Humedad 92%
Precipitaciones 0.00 pul
Espesor de la nieve No disponible.
UV 0 de una escala de 12
Polen 9.70 de una escala de 12
Calidad del aire No disponible.
Flu Activity No disponible.
METAR KTTS 010758Z AUTO 13003KT 10SM BKN037 BKN045 11/10 A3022 RMK AO2 SLP237 T01110098

More Conditions Fewer Conditions

10-Day Weather Forecast

Almanac

Astronomía

Feb. 01, 2015 Salida Puesta
Hora real
Crepúsculo civil
Crepúsculo náutico
Crepúsculo astronómico
Luna
Horas de luz
Horas de luz
Tomorrow will be .
, % of the Moon is Illuminated

Extremos de hoy

Máximos del estado Bajos del estado

Community

WunderPhotos

Upload Photos

1,792,338 ¡fotos cargadas!

WunderBlogs® & News

Nearby

Calidad del aire

  Calidad del aire Índice AQ Contaminante
Not available.

Grosos de nieve

Estación Profundido Altura

Actividad de terremotos

Ciudad Distance Mag. Tiempo y dato
Magnitud mínima muestra es 2,5.

Temperaturas de aguas costeras

Lugar Temperatura

Estaciones meteorológicas cercanas